Terminal Aerodrome Forecast
Issued by NWS Omaha/Valley, NE

Home | Current Version | Previous Version | Graphics & Text | Print | Product List | Glossary On
Versions: 1 2 3 4 5 6 7 8 9 10 11 12 13 14 15 16 17 18 19 20 21 22 23 24 25 26 27 28 29 30 31 32 33 34 35 36 37 38 39 40 41 42 43 44 45 46 47 48 49 50
000
FTUS43 KOAX 012042 AAB
TAFOFK
TAF AMD
KOFK 012042Z 0121/0218 09008KT P6SM SCT040
     FM020200 10005KT P6SM OVC100
     FM020600 11006KT P6SM OVC100 PROB30 0206/0212 5SM -TSRA
      BKN050CB
     FM021200 10003KT 2SM BR OVC005 PROB30 0212/0218 2SM -RA OVC005=

USA.gov is the U.S. government's official web portal to all federal, state and local government web resources and services.